Randolph, VT (05060)

3:04 PM EDT on May 28, 2015 (GMT -0400)
East Bethel | | Change Station
CLOSE
Current Station
Personal Weather Station
Location: Bethel, VT
Elevation: 561 ft
Nearby Weather Stations
Active Advisory: Severe Thunderstorm Watch Active Notice: Local Storm Report

Elev 561 ft 43.87 °N, 72.59 °W | Updated 43 seconds ago

Mostly Cloudy
Mostly Cloudy
75.2 °F
Feels Like 73 °F
N
0.0
Wind Variable Wind from North
Gusts 0.0 mph

Today
High -- | Low -- °F
--% Chance of Precip.
Yesterday
High -- | Low -- °F
Precip. -- in
5:13 AM 8:22 PM
Waxing Gibbous, 78% visible
Pressure 30.12 in
Visibility 10.0 miles
Clouds Scattered Clouds 3000 ft
Mostly Cloudy 5000 ft
Overcast 7500 ft
Heat Index 73 °F
Dew Point Not available.
Humidity Not available.
Rainfall 0.00 in
Snow Depth Not available.
UV 3 out of 12
Pollen 8.60 out of 12
Air Quality Not available.
Flu Activity Local Activity
METAR KMPV 281851Z AUTO 34011G21KT 10SM SCT030 BKN050 OVC075 20/15 A3012 RMK AO2 PK WND 23027/1808 WSHFT 1836 SLP199 T02000150

More Conditions Fewer Conditions

Pressure 30.12 in
Visibility 10.0 miles
Clouds Scattered Clouds 3000 ft
Mostly Cloudy 5000 ft
Overcast 7500 ft
Heat Index 73 °F
Dew Point Not available.
Humidity Not available.
Rainfall 0.00 in
Snow Depth Not available.
UV 3 out of 12
Pollen 8.60 out of 12
Air Quality Not available.
Flu Activity Local Activity
METAR KMPV 281851Z AUTO 34011G21KT 10SM SCT030 BKN050 OVC075 20/15 A3012 RMK AO2 PK WND 23027/1808 WSHFT 1836 SLP199 T02000150

More Conditions Fewer Conditions

10-Day Weather Forecast

Almanac

Astronomy

May. 28, 2015 Rise Set
Actual Time
Civil Twilight
Nautical Twilight
Astronomical Twilight
Moon
Length of Visible Light
Length of Day
Tomorrow will be .
, % of the Moon is Illuminated

Today's Extremes

State Highs State Lows

Community

WunderPhotos

Upload Photos

1,825,024 photos uploaded!

WunderBlogs® & News

Nearby

Air Quality

  Air Quality AQ Index Pollutant
Not available.

Snow Depth

Station Depth Elevation

Earthquake Activity

City Distance Mag. Time & Date
Minimum magnitude displayed is 2.5.

Coastal Water Temperatures

Place Temperature

Stations

Nearby Weather Stations

Station Location Temp. Windchill Dew Point Humidity Wind Precip. Elev Updated Type
                   
Severe Thunderstorm Watch
Statement as of 3:03 PM EDT on May 28, 2015

Severe Thunderstorm Watch 233 remains in effect until 700 PM EDT

VT
. Vermont counties included are

Bennington Orange Rutland
Windham Windsor